sensor_id;sensor_type;location;lat;lon;timestamp;temperature;humidity
37594;DHT22;23441;50.856;6.076;2023-04-06T00:01:47;1.70;99.90
37594;DHT22;23441;50.856;6.076;2023-04-06T00:04:13;1.70;99.90
37594;DHT22;23441;50.856;6.076;2023-04-06T00:06:38;1.60;99.90
37594;DHT22;23441;50.856;6.076;2023-04-06T00:09:04;1.60;99.90
37594;DHT22;23441;50.856;6.076;2023-04-06T00:11:30;1.60;99.90
37594;DHT22;23441;50.856;6.076;2023-04-06T00:13:55;1.50;99.90
37594;DHT22;23441;50.856;6.076;2023-04-06T00:16:21;1.50;99.90
37594;DHT22;23441;50.856;6.076;2023-04-06T00:18:47;1.50;99.90
37594;DHT22;23441;50.856;6.076;2023-04-06T00:21:13;1.40;99.90
37594;DHT22;23441;50.856;6.076;2023-04-06T00:23:40;1.40;99.90
37594;DHT22;23441;50.856;6.076;2023-04-06T00:26:06;1.30;99.90
37594;DHT22;23441;50.856;6.076;2023-04-06T00:28:31;1.30;99.90
37594;DHT22;23441;50.856;6.076;2023-04-06T00:30:57;1.20;99.90
37594;DHT22;23441;50.856;6.076;2023-04-06T00:33:23;1.20;99.90
37594;DHT22;23441;50.856;6.076;2023-04-06T00:35:49;1.20;99.90
37594;DHT22;23441;50.856;6.076;2023-04-06T00:38:15;1.20;99.90
37594;DHT22;23441;50.856;6.076;2023-04-06T00:40:42;1.20;99.90
37594;DHT22;23441;50.856;6.076;2023-04-06T00:43:11;1.20;99.90
37594;DHT22;23441;50.856;6.076;2023-04-06T00:45:38;1.20;99.90
37594;DHT22;23441;50.856;6.076;2023-04-06T00:48:05;1.20;99.90
37594;DHT22;23441;50.856;6.076;2023-04-06T00:50:31;1.20;99.90
37594;DHT22;23441;50.856;6.076;2023-04-06T00:52:57;1.20;99.90
37594;DHT22;23441;50.856;6.076;2023-04-06T00:55:23;1.20;99.90
37594;DHT22;23441;50.856;6.076;2023-04-06T00:57:49;1.20;99.90
37594;DHT22;23441;50.856;6.076;2023-04-06T01:00:16;1.20;99.90
37594;DHT22;23441;50.856;6.076;2023-04-06T01:02:42;1.10;99.90
37594;DHT22;23441;50.856;6.076;2023-04-06T01:05:10;1.20;99.90
37594;DHT22;23441;50.856;6.076;2023-04-06T01:07:36;1.10;99.90
37594;DHT22;23441;50.856;6.076;2023-04-06T01:10:02;1.10;99.90
37594;DHT22;23441;50.856;6.076;2023-04-06T01:12:28;1.10;99.90
37594;DHT22;23441;50.856;6.076;2023-04-06T01:14:54;1.10;99.90
37594;DHT22;23441;50.856;6.076;2023-04-06T01:17:20;1.00;99.90
37594;DHT22;23441;50.856;6.076;2023-04-06T01:19:45;1.00;99.90
37594;DHT22;23441;50.856;6.076;2023-04-06T01:22:17;1.00;99.90
37594;DHT22;23441;50.856;6.076;2023-04-06T01:24:43;1.00;99.90
37594;DHT22;23441;50.856;6.076;2023-04-06T01:27:09;0.90;99.90
37594;DHT22;23441;50.856;6.076;2023-04-06T01:29:35;0.90;99.90
37594;DHT22;23441;50.856;6.076;2023-04-06T01:32:01;0.90;99.90
37594;DHT22;23441;50.856;6.076;2023-04-06T01:34:26;0.90;99.90
37594;DHT22;23441;50.856;6.076;2023-04-06T01:36:52;0.80;99.90
37594;DHT22;23441;50.856;6.076;2023-04-06T01:39:18;0.80;99.90
37594;DHT22;23441;50.856;6.076;2023-04-06T01:41:44;0.70;99.90
37594;DHT22;23441;50.856;6.076;2023-04-06T01:44:12;0.70;99.90
37594;DHT22;23441;50.856;6.076;2023-04-06T01:46:38;0.80;99.90
37594;DHT22;23441;50.856;6.076;2023-04-06T01:49:04;0.70;99.90
37594;DHT22;23441;50.856;6.076;2023-04-06T01:51:30;0.70;99.90
37594;DHT22;23441;50.856;6.076;2023-04-06T01:53:56;0.70;99.90
37594;DHT22;23441;50.856;6.076;2023-04-06T01:56:21;0.60;99.90
37594;DHT22;23441;50.856;6.076;2023-04-06T01:58:47;0.70;99.90
37594;DHT22;23441;50.856;6.076;2023-04-06T02:01:13;0.60;99.90
37594;DHT22;23441;50.856;6.076;2023-04-06T02:03:38;0.60;99.90
37594;DHT22;23441;50.856;6.076;2023-04-06T02:06:04;0.60;99.90
37594;DHT22;23441;50.856;6.076;2023-04-06T02:08:30;0.70;99.90
37594;DHT22;23441;50.856;6.076;2023-04-06T02:10:55;0.70;99.90
37594;DHT22;23441;50.856;6.076;2023-04-06T02:13:21;0.70;99.90
37594;DHT22;23441;50.856;6.076;2023-04-06T02:15:47;0.70;99.90
37594;DHT22;23441;50.856;6.076;2023-04-06T02:18:12;0.70;99.90
37594;DHT22;23441;50.856;6.076;2023-04-06T02:20:38;0.70;99.90
37594;DHT22;23441;50.856;6.076;2023-04-06T02:23:04;0.70;99.90
37594;DHT22;23441;50.856;6.076;2023-04-06T02:25:29;0.70;99.90
37594;DHT22;23441;50.856;6.076;2023-04-06T02:27:55;0.70;99.90
37594;DHT22;23441;50.856;6.076;2023-04-06T02:30:21;0.70;99.90
37594;DHT22;23441;50.856;6.076;2023-04-06T02:32:46;0.70;99.90
37594;DHT22;23441;50.856;6.076;2023-04-06T02:35:12;0.70;99.90
37594;DHT22;23441;50.856;6.076;2023-04-06T02:37:37;0.70;99.90
37594;DHT22;23441;50.856;6.076;2023-04-06T02:40:03;0.70;99.90
37594;DHT22;23441;50.856;6.076;2023-04-06T02:42:29;0.70;99.90
37594;DHT22;23441;50.856;6.076;2023-04-06T02:44:55;0.60;99.90
37594;DHT22;23441;50.856;6.076;2023-04-06T02:47:20;0.60;99.90
37594;DHT22;23441;50.856;6.076;2023-04-06T02:49:46;0.60;99.90
37594;DHT22;23441;50.856;6.076;2023-04-06T02:52:12;0.60;99.90
37594;DHT22;23441;50.856;6.076;2023-04-06T02:54:37;0.60;99.90
37594;DHT22;23441;50.856;6.076;2023-04-06T02:57:03;0.60;99.90
37594;DHT22;23441;50.856;6.076;2023-04-06T02:59:29;0.50;99.90
37594;DHT22;23441;50.856;6.076;2023-04-06T03:01:55;0.50;99.90
37594;DHT22;23441;50.856;6.076;2023-04-06T03:04:20;0.50;99.90
37594;DHT22;23441;50.856;6.076;2023-04-06T03:06:48;0.50;99.90
37594;DHT22;23441;50.856;6.076;2023-04-06T03:09:13;0.50;99.90
37594;DHT22;23441;50.856;6.076;2023-04-06T03:11:39;0.50;99.90
37594;DHT22;23441;50.856;6.076;2023-04-06T03:14:05;0.40;99.90
37594;DHT22;23441;50.856;6.076;2023-04-06T03:16:30;0.50;99.90
37594;DHT22;23441;50.856;6.076;2023-04-06T03:18:56;0.50;99.90
37594;DHT22;23441;50.856;6.076;2023-04-06T03:21:22;0.50;99.90
37594;DHT22;23441;50.856;6.076;2023-04-06T03:23:47;0.50;99.90
37594;DHT22;23441;50.856;6.076;2023-04-06T03:26:16;0.50;99.90
37594;DHT22;23441;50.856;6.076;2023-04-06T03:28:42;0.50;99.90
37594;DHT22;23441;50.856;6.076;2023-04-06T03:31:08;0.40;99.90
37594;DHT22;23441;50.856;6.076;2023-04-06T03:33:33;0.40;99.90
37594;DHT22;23441;50.856;6.076;2023-04-06T03:35:59;0.40;99.90
37594;DHT22;23441;50.856;6.076;2023-04-06T03:38:24;0.40;99.90
37594;DHT22;23441;50.856;6.076;2023-04-06T03:40:50;0.40;99.90
37594;DHT22;23441;50.856;6.076;2023-04-06T03:43:16;0.50;99.90
37594;DHT22;23441;50.856;6.076;2023-04-06T03:45:41;0.50;99.90
37594;DHT22;23441;50.856;6.076;2023-04-06T03:48:07;0.50;99.90
37594;DHT22;23441;50.856;6.076;2023-04-06T03:50:32;0.50;99.90
37594;DHT22;23441;50.856;6.076;2023-04-06T03:52:58;0.50;99.90
37594;DHT22;23441;50.856;6.076;2023-04-06T03:55:24;0.60;99.90
37594;DHT22;23441;50.856;6.076;2023-04-06T03:57:49;0.60;99.90
37594;DHT22;23441;50.856;6.076;2023-04-06T04:00:15;0.70;99.90
37594;DHT22;23441;50.856;6.076;2023-04-06T04:02:41;0.70;99.90
37594;DHT22;23441;50.856;6.076;2023-04-06T04:05:07;0.70;99.90
37594;DHT22;23441;50.856;6.076;2023-04-06T04:07:33;0.80;99.90
37594;DHT22;23441;50.856;6.076;2023-04-06T04:09:58;0.90;99.90
37594;DHT22;23441;50.856;6.076;2023-04-06T04:12:24;0.90;99.90
37594;DHT22;23441;50.856;6.076;2023-04-06T04:14:49;1.00;99.90
37594;DHT22;23441;50.856;6.076;2023-04-06T04:17:16;1.10;99.90
37594;DHT22;23441;50.856;6.076;2023-04-06T04:19:41;1.10;99.90
37594;DHT22;23441;50.856;6.076;2023-04-06T04:22:07;1.20;99.90
37594;DHT22;23441;50.856;6.076;2023-04-06T04:24:33;1.30;99.90
37594;DHT22;23441;50.856;6.076;2023-04-06T04:26:59;1.30;99.90
37594;DHT22;23441;50.856;6.076;2023-04-06T04:29:26;1.40;99.90
37594;DHT22;23441;50.856;6.076;2023-04-06T04:31:52;1.40;99.90
37594;DHT22;23441;50.856;6.076;2023-04-06T04:34:18;1.40;99.90
37594;DHT22;23441;50.856;6.076;2023-04-06T04:36:50;1.50;99.90
37594;DHT22;23441;50.856;6.076;2023-04-06T04:39:16;1.50;99.90
37594;DHT22;23441;50.856;6.076;2023-04-06T04:41:42;1.50;99.90
37594;DHT22;23441;50.856;6.076;2023-04-06T04:44:07;1.50;99.90
37594;DHT22;23441;50.856;6.076;2023-04-06T04:46:33;1.50;99.90
37594;DHT22;23441;50.856;6.076;2023-04-06T04:48:59;1.50;99.90
37594;DHT22;23441;50.856;6.076;2023-04-06T04:51:24;1.50;99.90
37594;DHT22;23441;50.856;6.076;2023-04-06T04:53:50;1.60;99.90
37594;DHT22;23441;50.856;6.076;2023-04-06T04:56:16;1.60;99.90
37594;DHT22;23441;50.856;6.076;2023-04-06T04:58:41;1.60;99.90
37594;DHT22;23441;50.856;6.076;2023-04-06T05:01:08;1.60;99.90
37594;DHT22;23441;50.856;6.076;2023-04-06T05:03:34;1.60;99.90
37594;DHT22;23441;50.856;6.076;2023-04-06T05:06:01;1.70;99.90
37594;DHT22;23441;50.856;6.076;2023-04-06T05:08:26;1.70;99.90
37594;DHT22;23441;50.856;6.076;2023-04-06T05:10:52;1.70;99.90
37594;DHT22;23441;50.856;6.076;2023-04-06T05:13:18;1.80;99.90
37594;DHT22;23441;50.856;6.076;2023-04-06T05:15:43;1.80;99.90
37594;DHT22;23441;50.856;6.076;2023-04-06T05:18:10;1.80;99.90
37594;DHT22;23441;50.856;6.076;2023-04-06T05:20:36;1.80;99.90
37594;DHT22;23441;50.856;6.076;2023-04-06T05:23:02;1.90;99.90
37594;DHT22;23441;50.856;6.076;2023-04-06T05:25:28;1.90;99.90
37594;DHT22;23441;50.856;6.076;2023-04-06T05:27:53;2.00;99.90
37594;DHT22;23441;50.856;6.076;2023-04-06T05:30:20;2.10;99.90
37594;DHT22;23441;50.856;6.076;2023-04-06T05:32:45;2.10;99.90
37594;DHT22;23441;50.856;6.076;2023-04-06T05:35:11;2.20;99.90
37594;DHT22;23441;50.856;6.076;2023-04-06T05:37:38;2.30;99.90
37594;DHT22;23441;50.856;6.076;2023-04-06T05:40:06;2.40;99.90
37594;DHT22;23441;50.856;6.076;2023-04-06T05:42:42;2.40;99.90
37594;DHT22;23441;50.856;6.076;2023-04-06T05:45:11;2.50;99.90
37594;DHT22;23441;50.856;6.076;2023-04-06T05:47:42;2.60;99.90
37594;DHT22;23441;50.856;6.076;2023-04-06T05:50:10;2.70;99.90
37594;DHT22;23441;50.856;6.076;2023-04-06T05:52:35;2.80;99.90
37594;DHT22;23441;50.856;6.076;2023-04-06T05:55:01;3.00;99.90
37594;DHT22;23441;50.856;6.076;2023-04-06T05:57:27;3.10;99.90
37594;DHT22;23441;50.856;6.076;2023-04-06T05:59:53;3.20;99.90
37594;DHT22;23441;50.856;6.076;2023-04-06T06:02:18;3.30;99.90
37594;DHT22;23441;50.856;6.076;2023-04-06T06:04:44;3.50;99.90
37594;DHT22;23441;50.856;6.076;2023-04-06T06:07:10;3.70;99.90
37594;DHT22;23441;50.856;6.076;2023-04-06T06:09:35;3.80;99.90
37594;DHT22;23441;50.856;6.076;2023-04-06T06:12:01;3.90;99.90
37594;DHT22;23441;50.856;6.076;2023-04-06T06:14:26;4.00;99.90
37594;DHT22;23441;50.856;6.076;2023-04-06T06:16:54;4.10;99.90
37594;DHT22;23441;50.856;6.076;2023-04-06T06:19:20;4.20;99.90
37594;DHT22;23441;50.856;6.076;2023-04-06T06:21:45;4.30;99.90
37594;DHT22;23441;50.856;6.076;2023-04-06T06:24:11;4.50;99.90
37594;DHT22;23441;50.856;6.076;2023-04-06T06:26:37;4.70;99.90
37594;DHT22;23441;50.856;6.076;2023-04-06T06:29:05;4.80;99.90
37594;DHT22;23441;50.856;6.076;2023-04-06T06:31:31;5.00;99.90
37594;DHT22;23441;50.856;6.076;2023-04-06T06:33:57;5.20;99.90
37594;DHT22;23441;50.856;6.076;2023-04-06T06:36:23;5.30;99.90
37594;DHT22;23441;50.856;6.076;2023-04-06T06:38:48;5.40;99.90
37594;DHT22;23441;50.856;6.076;2023-04-06T06:41:14;5.60;99.90
37594;DHT22;23441;50.856;6.076;2023-04-06T06:43:39;5.70;99.90
37594;DHT22;23441;50.856;6.076;2023-04-06T06:46:05;5.90;99.90
37594;DHT22;23441;50.856;6.076;2023-04-06T06:48:31;6.10;99.90
37594;DHT22;23441;50.856;6.076;2023-04-06T06:50:57;6.40;99.90
37594;DHT22;23441;50.856;6.076;2023-04-06T06:53:23;6.50;99.90
37594;DHT22;23441;50.856;6.076;2023-04-06T06:55:49;6.70;99.90
37594;DHT22;23441;50.856;6.076;2023-04-06T06:58:15;6.90;99.90
37594;DHT22;23441;50.856;6.076;2023-04-06T07:00:41;7.00;99.90
37594;DHT22;23441;50.856;6.076;2023-04-06T07:03:06;7.20;99.90
37594;DHT22;23441;50.856;6.076;2023-04-06T07:05:32;7.30;99.90
37594;DHT22;23441;50.856;6.076;2023-04-06T07:07:58;7.50;99.90
37594;DHT22;23441;50.856;6.076;2023-04-06T07:10:24;7.60;99.90
37594;DHT22;23441;50.856;6.076;2023-04-06T07:12:49;7.80;99.90
37594;DHT22;23441;50.856;6.076;2023-04-06T07:15:15;7.90;99.90
37594;DHT22;23441;50.856;6.076;2023-04-06T07:17:41;8.10;99.90
37594;DHT22;23441;50.856;6.076;2023-04-06T07:20:07;8.40;99.90
37594;DHT22;23441;50.856;6.076;2023-04-06T07:22:32;8.60;99.90
37594;DHT22;23441;50.856;6.076;2023-04-06T07:24:58;8.80;99.90
37594;DHT22;23441;50.856;6.076;2023-04-06T07:27:24;8.90;99.90
37594;DHT22;23441;50.856;6.076;2023-04-06T07:29:50;9.10;99.90
37594;DHT22;23441;50.856;6.076;2023-04-06T07:32:15;9.10;99.90
37594;DHT22;23441;50.856;6.076;2023-04-06T07:34:41;9.10;99.90
37594;DHT22;23441;50.856;6.076;2023-04-06T07:37:06;9.10;99.90
37594;DHT22;23441;50.856;6.076;2023-04-06T07:39:33;9.10;99.90
37594;DHT22;23441;50.856;6.076;2023-04-06T07:42:00;9.10;99.90
37594;DHT22;23441;50.856;6.076;2023-04-06T07:44:25;9.00;99.90
37594;DHT22;23441;50.856;6.076;2023-04-06T07:46:51;9.10;99.90
37594;DHT22;23441;50.856;6.076;2023-04-06T07:49:17;9.10;99.90
37594;DHT22;23441;50.856;6.076;2023-04-06T07:51:43;9.10;99.90
37594;DHT22;23441;50.856;6.076;2023-04-06T07:54:08;9.10;99.90
37594;DHT22;23441;50.856;6.076;2023-04-06T07:56:34;9.20;99.90
37594;DHT22;23441;50.856;6.076;2023-04-06T07:58:59;9.30;99.90
37594;DHT22;23441;50.856;6.076;2023-04-06T08:01:26;9.30;99.90
37594;DHT22;23441;50.856;6.076;2023-04-06T08:03:52;9.20;99.90
37594;DHT22;23441;50.856;6.076;2023-04-06T08:06:17;9.30;99.90
37594;DHT22;23441;50.856;6.076;2023-04-06T08:08:43;9.30;99.90
37594;DHT22;23441;50.856;6.076;2023-04-06T08:11:09;9.40;99.90
37594;DHT22;23441;50.856;6.076;2023-04-06T08:13:35;9.40;99.90
37594;DHT22;23441;50.856;6.076;2023-04-06T08:16:01;9.50;99.90
37594;DHT22;23441;50.856;6.076;2023-04-06T08:18:27;9.70;99.90
37594;DHT22;23441;50.856;6.076;2023-04-06T08:20:52;9.80;99.90
37594;DHT22;23441;50.856;6.076;2023-04-06T08:23:19;9.90;99.90
37594;DHT22;23441;50.856;6.076;2023-04-06T08:25:45;9.80;99.90
37594;DHT22;23441;50.856;6.076;2023-04-06T08:28:11;10.00;99.90
37594;DHT22;23441;50.856;6.076;2023-04-06T08:30:39;10.20;99.90
37594;DHT22;23441;50.856;6.076;2023-04-06T08:33:05;10.20;99.90
37594;DHT22;23441;50.856;6.076;2023-04-06T08:35:31;10.20;99.90
37594;DHT22;23441;50.856;6.076;2023-04-06T08:37:57;10.40;99.90
37594;DHT22;23441;50.856;6.076;2023-04-06T08:40:23;10.40;99.90
37594;DHT22;23441;50.856;6.076;2023-04-06T08:42:56;10.50;99.90
37594;DHT22;23441;50.856;6.076;2023-04-06T08:45:22;10.70;99.90
37594;DHT22;23441;50.856;6.076;2023-04-06T08:47:51;10.90;99.90
37594;DHT22;23441;50.856;6.076;2023-04-06T08:50:20;11.00;99.90
37594;DHT22;23441;50.856;6.076;2023-04-06T08:52:49;11.00;99.80
37594;DHT22;23441;50.856;6.076;2023-04-06T08:55:15;11.10;99.30
37594;DHT22;23441;50.856;6.076;2023-04-06T08:57:42;10.90;99.30
37594;DHT22;23441;50.856;6.076;2023-04-06T09:00:10;11.00;98.90
37594;DHT22;23441;50.856;6.076;2023-04-06T09:02:39;10.90;98.40
37594;DHT22;23441;50.856;6.076;2023-04-06T09:05:08;10.70;99.10
37594;DHT22;23441;50.856;6.076;2023-04-06T09:07:34;10.60;99.90
37594;DHT22;23441;50.856;6.076;2023-04-06T09:10:00;10.70;98.60
37594;DHT22;23441;50.856;6.076;2023-04-06T09:12:27;10.80;99.90
37594;DHT22;23441;50.856;6.076;2023-04-06T09:14:52;10.90;99.10
37594;DHT22;23441;50.856;6.076;2023-04-06T09:17:23;10.90;98.20
37594;DHT22;23441;50.856;6.076;2023-04-06T09:19:49;10.90;98.70
37594;DHT22;23441;50.856;6.076;2023-04-06T09:22:17;10.80;98.70
37594;DHT22;23441;50.856;6.076;2023-04-06T09:24:48;10.90;98.30
37594;DHT22;23441;50.856;6.076;2023-04-06T09:27:14;10.80;97.90
37594;DHT22;23441;50.856;6.076;2023-04-06T09:29:41;10.80;98.40
37594;DHT22;23441;50.856;6.076;2023-04-06T09:32:08;10.80;97.90
37594;DHT22;23441;50.856;6.076;2023-04-06T09:34:40;10.60;98.40
37594;DHT22;23441;50.856;6.076;2023-04-06T09:37:16;10.70;98.80
37594;DHT22;23441;50.856;6.076;2023-04-06T09:39:42;10.70;99.20
37594;DHT22;23441;50.856;6.076;2023-04-06T09:42:08;10.80;99.80
37594;DHT22;23441;50.856;6.076;2023-04-06T09:44:33;10.90;97.80
37594;DHT22;23441;50.856;6.076;2023-04-06T09:47:00;11.00;98.50
37594;DHT22;23441;50.856;6.076;2023-04-06T09:49:30;11.00;98.60
37594;DHT22;23441;50.856;6.076;2023-04-06T09:52:01;11.20;97.90
37594;DHT22;23441;50.856;6.076;2023-04-06T09:54:31;11.30;98.50
37594;DHT22;23441;50.856;6.076;2023-04-06T10:03:14;11.80;98.20
37594;DHT22;23441;50.856;6.076;2023-04-06T10:05:54;11.90;97.40
37594;DHT22;23441;50.856;6.076;2023-04-06T10:08:24;11.80;96.60
37594;DHT22;23441;50.856;6.076;2023-04-06T10:10:53;11.70;98.20
37594;DHT22;23441;50.856;6.076;2023-04-06T10:13:19;11.80;98.40
37594;DHT22;23441;50.856;6.076;2023-04-06T10:15:45;12.10;98.50
37594;DHT22;23441;50.856;6.076;2023-04-06T10:18:11;12.20;97.80
37594;DHT22;23441;50.856;6.076;2023-04-06T10:20:54;12.00;97.10
37594;DHT22;23441;50.856;6.076;2023-04-06T10:23:31;11.90;97.50
37594;DHT22;23441;50.856;6.076;2023-04-06T10:25:59;12.10;97.80
37594;DHT22;23441;50.856;6.076;2023-04-06T10:28:25;12.00;97.00
37594;DHT22;23441;50.856;6.076;2023-04-06T10:31:00;11.90;97.80
37594;DHT22;23441;50.856;6.076;2023-04-06T10:33:26;12.00;97.60
37594;DHT22;23441;50.856;6.076;2023-04-06T10:35:52;12.10;98.90
37594;DHT22;23441;50.856;6.076;2023-04-06T10:38:19;12.00;97.70
37594;DHT22;23441;50.856;6.076;2023-04-06T10:40:49;11.70;98.20
37594;DHT22;23441;50.856;6.076;2023-04-06T10:43:22;11.70;98.00
37594;DHT22;23441;50.856;6.076;2023-04-06T10:45:56;11.50;97.90
37594;DHT22;23441;50.856;6.076;2023-04-06T10:48:22;11.50;98.90
37594;DHT22;23441;50.856;6.076;2023-04-06T10:50:50;11.40;99.10
37594;DHT22;23441;50.856;6.076;2023-04-06T10:53:27;11.30;99.70
37594;DHT22;23441;50.856;6.076;2023-04-06T10:55:54;11.40;98.30
37594;DHT22;23441;50.856;6.076;2023-04-06T10:58:24;11.50;98.30
37594;DHT22;23441;50.856;6.076;2023-04-06T11:00:50;11.50;99.00
37594;DHT22;23441;50.856;6.076;2023-04-06T11:03:17;11.30;99.00
37594;DHT22;23441;50.856;6.076;2023-04-06T11:05:49;11.40;98.60
37594;DHT22;23441;50.856;6.076;2023-04-06T11:08:29;11.40;99.80
37594;DHT22;23441;50.856;6.076;2023-04-06T11:11:09;11.50;99.80
37594;DHT22;23441;50.856;6.076;2023-04-06T11:13:44;11.60;99.00
37594;DHT22;23441;50.856;6.076;2023-04-06T11:16:33;11.50;98.90
37594;DHT22;23441;50.856;6.076;2023-04-06T11:21:35;11.40;98.90
37594;DHT22;23441;50.856;6.076;2023-04-06T11:29:06;11.30;99.80
37594;DHT22;23441;50.856;6.076;2023-04-06T11:31:41;11.20;99.90
37594;DHT22;23441;50.856;6.076;2023-04-06T11:34:20;11.20;99.90
37594;DHT22;23441;50.856;6.076;2023-04-06T11:36:47;11.20;99.90
37594;DHT22;23441;50.856;6.076;2023-04-06T11:39:18;11.30;99.90
37594;DHT22;23441;50.856;6.076;2023-04-06T11:41:48;11.30;99.90
37594;DHT22;23441;50.856;6.076;2023-04-06T11:44:14;11.20;99.90
37594;DHT22;23441;50.856;6.076;2023-04-06T11:46:40;11.00;99.90
37594;DHT22;23441;50.856;6.076;2023-04-06T11:49:06;11.00;99.90
37594;DHT22;23441;50.856;6.076;2023-04-06T11:51:35;10.90;99.90
37594;DHT22;23441;50.856;6.076;2023-04-06T11:54:02;11.00;99.90
37594;DHT22;23441;50.856;6.076;2023-04-06T11:56:29;10.80;99.90
37594;DHT22;23441;50.856;6.076;2023-04-06T11:58:56;10.70;99.90
37594;DHT22;23441;50.856;6.076;2023-04-06T12:01:22;10.70;99.90
37594;DHT22;23441;50.856;6.076;2023-04-06T12:03:48;10.80;99.90
37594;DHT22;23441;50.856;6.076;2023-04-06T12:06:14;10.70;99.90
37594;DHT22;23441;50.856;6.076;2023-04-06T12:08:40;10.50;99.90
37594;DHT22;23441;50.856;6.076;2023-04-06T12:11:06;10.60;99.90
37594;DHT22;23441;50.856;6.076;2023-04-06T12:13:32;10.50;99.90
37594;DHT22;23441;50.856;6.076;2023-04-06T12:15:58;10.60;99.90
37594;DHT22;23441;50.856;6.076;2023-04-06T12:18:24;10.50;99.90
37594;DHT22;23441;50.856;6.076;2023-04-06T12:20:51;10.30;99.90
37594;DHT22;23441;50.856;6.076;2023-04-06T12:23:17;10.60;99.90
37594;DHT22;23441;50.856;6.076;2023-04-06T12:25:42;10.80;99.90
37594;DHT22;23441;50.856;6.076;2023-04-06T12:28:08;11.00;99.90
37594;DHT22;23441;50.856;6.076;2023-04-06T12:30:37;11.20;99.90
37594;DHT22;23441;50.856;6.076;2023-04-06T12:33:03;11.10;99.90
37594;DHT22;23441;50.856;6.076;2023-04-06T12:35:28;11.00;99.90
37594;DHT22;23441;50.856;6.076;2023-04-06T12:37:54;11.10;99.90
37594;DHT22;23441;50.856;6.076;2023-04-06T12:40:20;10.90;99.90
37594;DHT22;23441;50.856;6.076;2023-04-06T12:42:46;10.50;99.90
37594;DHT22;23441;50.856;6.076;2023-04-06T12:45:12;10.40;99.90
37594;DHT22;23441;50.856;6.076;2023-04-06T12:47:38;9.90;99.90
37594;DHT22;23441;50.856;6.076;2023-04-06T12:50:04;9.70;99.90
37594;DHT22;23441;50.856;6.076;2023-04-06T12:52:33;9.70;99.90
37594;DHT22;23441;50.856;6.076;2023-04-06T12:55:01;9.60;99.90
37594;DHT22;23441;50.856;6.076;2023-04-06T12:57:27;9.50;99.90
37594;DHT22;23441;50.856;6.076;2023-04-06T12:59:53;9.40;99.90
37594;DHT22;23441;50.856;6.076;2023-04-06T13:02:19;9.40;99.90
37594;DHT22;23441;50.856;6.076;2023-04-06T13:04:49;9.40;99.90
37594;DHT22;23441;50.856;6.076;2023-04-06T13:07:15;9.30;99.90
37594;DHT22;23441;50.856;6.076;2023-04-06T13:09:41;9.40;99.90
37594;DHT22;23441;50.856;6.076;2023-04-06T13:12:07;9.40;99.90
37594;DHT22;23441;50.856;6.076;2023-04-06T13:14:32;9.50;99.90
37594;DHT22;23441;50.856;6.076;2023-04-06T13:16:58;9.60;99.90
37594;DHT22;23441;50.856;6.076;2023-04-06T13:19:24;9.60;99.90
37594;DHT22;23441;50.856;6.076;2023-04-06T13:21:50;9.50;99.90
37594;DHT22;23441;50.856;6.076;2023-04-06T13:24:16;9.30;99.90
37594;DHT22;23441;50.856;6.076;2023-04-06T13:26:42;9.30;99.90
37594;DHT22;23441;50.856;6.076;2023-04-06T13:29:07;9.20;99.90
37594;DHT22;23441;50.856;6.076;2023-04-06T13:31:33;9.10;99.90
37594;DHT22;23441;50.856;6.076;2023-04-06T13:33:59;9.10;99.90
37594;DHT22;23441;50.856;6.076;2023-04-06T13:36:25;8.90;99.90
37594;DHT22;23441;50.856;6.076;2023-04-06T13:38:52;9.00;99.90
37594;DHT22;23441;50.856;6.076;2023-04-06T13:41:19;9.00;99.90
37594;DHT22;23441;50.856;6.076;2023-04-06T13:43:46;8.90;99.90
37594;DHT22;23441;50.856;6.076;2023-04-06T13:46:12;8.90;99.90
37594;DHT22;23441;50.856;6.076;2023-04-06T13:48:38;8.80;99.90
37594;DHT22;23441;50.856;6.076;2023-04-06T13:51:10;8.80;99.90
37594;DHT22;23441;50.856;6.076;2023-04-06T13:53:36;8.80;99.90
37594;DHT22;23441;50.856;6.076;2023-04-06T13:56:02;9.00;99.90
37594;DHT22;23441;50.856;6.076;2023-04-06T13:58:27;9.10;99.90
37594;DHT22;23441;50.856;6.076;2023-04-06T14:00:53;9.10;99.90
37594;DHT22;23441;50.856;6.076;2023-04-06T14:03:21;9.00;99.90
37594;DHT22;23441;50.856;6.076;2023-04-06T14:05:47;9.00;99.90
37594;DHT22;23441;50.856;6.076;2023-04-06T14:08:13;8.90;99.90
37594;DHT22;23441;50.856;6.076;2023-04-06T14:10:39;8.90;99.90
37594;DHT22;23441;50.856;6.076;2023-04-06T14:13:08;8.90;99.90
37594;DHT22;23441;50.856;6.076;2023-04-06T14:15:34;8.90;99.90
37594;DHT22;23441;50.856;6.076;2023-04-06T14:18:00;8.90;99.90
37594;DHT22;23441;50.856;6.076;2023-04-06T14:20:26;8.70;99.90
37594;DHT22;23441;50.856;6.076;2023-04-06T14:22:52;8.80;99.90
37594;DHT22;23441;50.856;6.076;2023-04-06T14:25:19;8.70;99.90
37594;DHT22;23441;50.856;6.076;2023-04-06T14:27:45;8.70;99.90
37594;DHT22;23441;50.856;6.076;2023-04-06T14:30:11;8.70;99.90
37594;DHT22;23441;50.856;6.076;2023-04-06T14:32:37;8.70;99.90
37594;DHT22;23441;50.856;6.076;2023-04-06T14:35:06;8.70;99.90
37594;DHT22;23441;50.856;6.076;2023-04-06T14:37:32;8.70;99.90
37594;DHT22;23441;50.856;6.076;2023-04-06T14:39:57;8.70;99.90
37594;DHT22;23441;50.856;6.076;2023-04-06T14:42:23;8.70;99.90
37594;DHT22;23441;50.856;6.076;2023-04-06T14:44:49;8.70;99.90
37594;DHT22;23441;50.856;6.076;2023-04-06T14:47:14;8.70;99.90
37594;DHT22;23441;50.856;6.076;2023-04-06T14:49:46;8.60;99.90
37594;DHT22;23441;50.856;6.076;2023-04-06T14:52:12;8.70;99.90
37594;DHT22;23441;50.856;6.076;2023-04-06T14:54:38;8.60;99.90
37594;DHT22;23441;50.856;6.076;2023-04-06T14:57:03;8.70;99.90
37594;DHT22;23441;50.856;6.076;2023-04-06T14:59:29;8.70;99.90
37594;DHT22;23441;50.856;6.076;2023-04-06T15:01:54;8.70;99.90
37594;DHT22;23441;50.856;6.076;2023-04-06T15:04:20;8.70;99.90
37594;DHT22;23441;50.856;6.076;2023-04-06T15:06:46;8.80;99.90
37594;DHT22;23441;50.856;6.076;2023-04-06T15:09:11;8.70;99.90
37594;DHT22;23441;50.856;6.076;2023-04-06T15:11:37;8.70;99.90
37594;DHT22;23441;50.856;6.076;2023-04-06T15:14:03;8.70;99.90
37594;DHT22;23441;50.856;6.076;2023-04-06T15:16:29;8.60;99.90
37594;DHT22;23441;50.856;6.076;2023-04-06T15:18:58;8.60;99.90
37594;DHT22;23441;50.856;6.076;2023-04-06T15:21:24;8.70;99.90
37594;DHT22;23441;50.856;6.076;2023-04-06T15:23:50;8.60;99.90
37594;DHT22;23441;50.856;6.076;2023-04-06T15:26:16;8.60;99.90
37594;DHT22;23441;50.856;6.076;2023-04-06T15:28:42;8.60;99.90
37594;DHT22;23441;50.856;6.076;2023-04-06T15:31:16;8.50;99.90
37594;DHT22;23441;50.856;6.076;2023-04-06T15:33:42;8.50;99.90
37594;DHT22;23441;50.856;6.076;2023-04-06T15:36:27;8.40;99.90
37594;DHT22;23441;50.856;6.076;2023-04-06T15:38:57;8.30;99.90
37594;DHT22;23441;50.856;6.076;2023-04-06T15:41:23;8.30;99.90
37594;DHT22;23441;50.856;6.076;2023-04-06T15:43:49;8.40;99.90
37594;DHT22;23441;50.856;6.076;2023-04-06T15:46:16;8.30;99.90
37594;DHT22;23441;50.856;6.076;2023-04-06T15:48:42;8.20;99.90
37594;DHT22;23441;50.856;6.076;2023-04-06T15:51:07;8.10;99.90
37594;DHT22;23441;50.856;6.076;2023-04-06T15:53:33;8.10;99.90